Time;durP1;ratioP1;P1;durP2;ratioP2;P2;SDS_P1;SDS_P2;PMS_P1;PMS_P2;Temp;Humidity;BMP_temperature;BMP_pressure;BME280_temperature;BME280_humidity;BME280_pressure;Samples;Min_cycle;Max_cycle;Signal;HPM_P1;HPM_P2
2023/06/05 00:00:37;;;;;;;5.13;2.70;;;;;;;-144.47;38.17;52522.44;4995125;28;20057;-69
2023/06/05 00:03:03;;;;;;;4.88;1.90;;;;;;;-144.47;38.12;52524.41;5001553;28;20053;-67
2023/06/05 00:05:29;;;;;;;5.65;1.80;;;;;;;-144.47;38.21;52526.41;4994247;28;20591;-66
2023/06/05 00:07:55;;;;;;;5.15;2.03;;;;;;;-144.47;38.40;52554.22;4996976;28;20041;-69
2023/06/05 00:10:20;;;;;;;6.50;2.03;;;;;;;-144.47;38.36;52524.41;5006941;28;20687;-70
2023/06/05 00:12:46;;;;;;;6.22;1.95;;;;;;;-144.47;38.43;52532.38;4991934;28;20030;-70
2023/06/05 00:15:12;;;;;;;6.72;1.90;;;;;;;-144.47;38.50;52514.50;4992464;28;20033;-70
2023/06/05 00:17:37;;;;;;;4.22;1.60;;;;;;;-144.47;38.69;52528.41;4995559;28;20027;-70
2023/06/05 00:20:05;;;;;;;10.15;2.33;;;;;;;-144.47;38.66;52536.34;5002276;28;20022;-67
2023/06/05 00:22:31;;;;;;;7.13;1.60;;;;;;;-144.47;38.82;52546.25;4992719;28;20022;-70
2023/06/05 00:24:57;;;;;;;6.35;1.60;;;;;;;-144.47;38.88;52530.38;4995817;28;20491;-69
2023/06/05 00:27:22;;;;;;;6.07;2.10;;;;;;;-144.47;39.08;52530.38;5010362;28;20091;-69
2023/06/05 00:29:49;;;;;;;5.95;2.03;;;;;;;-144.47;39.09;52542.28;4997258;28;20026;-70
2023/06/05 00:32:15;;;;;;;4.32;1.52;;;;;;;-144.47;39.13;52562.16;5002340;28;20484;-69
2023/06/05 00:34:40;;;;;;;4.57;1.83;;;;;;;-144.47;39.13;52510.53;5005837;28;20030;-70
2023/06/05 00:37:06;;;;;;;6.07;2.20;;;;;;;-144.47;39.34;52550.25;5002163;28;20023;-69
2023/06/05 00:39:32;;;;;;;4.72;1.98;;;;;;;-144.47;39.26;52524.41;5000427;28;20033;-69
2023/06/05 00:41:58;;;;;;;12.50;2.03;;;;;;;-144.47;39.21;52514.50;4996912;28;20399;-70
2023/06/05 00:44:23;;;;;;;6.30;2.10;;;;;;;-144.47;39.23;52528.41;4997999;28;20062;-68
2023/06/05 00:46:52;;;;;;;4.47;1.95;;;;;;;-144.47;39.40;52514.50;4998668;28;20026;-67
2023/06/05 00:49:20;;;;;;;7.53;2.22;;;;;;;-144.47;39.41;52526.41;5000048;28;20030;-70
2023/06/05 00:51:46;;;;;;;;;;;;;;;-144.47;39.29;52524.41;5007873;28;20026;-71
2023/06/05 00:54:13;;;;;;;4.63;1.67;;;;;;;-144.47;39.45;52522.44;5009210;28;19913;-67
2023/06/05 00:56:42;;;;;;;3.67;1.85;;;;;;;-144.47;39.46;52528.41;5009372;28;20113;-69
2023/06/05 00:59:08;;;;;;;6.68;2.00;;;;;;;-144.47;39.49;52520.44;4999195;28;20049;-68
2023/06/05 01:01:34;;;;;;;7.25;1.80;;;;;;;-144.47;39.61;52542.28;4994707;28;20476;-66
2023/06/05 01:04:01;;;;;;;5.15;1.92;;;;;;;-144.47;39.55;52518.47;5008260;28;20040;-68
2023/06/05 01:06:28;;;;;;;5.65;2.00;;;;;;;-144.47;39.87;52536.34;4996379;28;20040;-70
2023/06/05 01:08:56;;;;;;;7.63;1.95;;;;;;;-144.47;39.93;52518.47;5009671;28;20026;-70
2023/06/05 01:11:37;;;;;;;2.55;1.42;;;;;;;-144.47;40.01;52524.41;5009526;28;20132;-69
2023/06/05 01:14:08;;;;;;;9.85;2.40;;;;;;;-144.47;40.30;52542.28;4995821;28;20038;-69
2023/06/05 01:16:34;;;;;;;11.43;2.50;;;;;;;-144.47;40.46;52526.41;5008954;28;20045;-68
2023/06/05 01:19:03;;;;;;;7.20;1.88;;;;;;;-144.47;40.64;52548.25;4999944;28;20041;-69
2023/06/05 01:21:30;;;;;;;6.95;1.67;;;;;;;-144.47;40.76;52548.25;4985283;28;20072;-68
2023/06/05 01:23:56;;;;;;;7.55;2.15;;;;;;;-144.47;40.85;52536.34;4991162;28;20023;-70
2023/06/05 01:26:25;;;;;;;5.10;1.85;;;;;;;-144.47;41.08;52550.25;5000437;28;20037;-69
2023/06/05 01:28:52;;;;;;;4.60;1.95;;;;;;;-144.47;41.11;52530.38;4996204;28;20022;-69
2023/06/05 01:31:21;;;;;;;4.50;1.60;;;;;;;-144.47;41.04;52534.34;5000440;28;20048;-66
2023/06/05 01:33:52;;;;;;;4.60;1.80;;;;;;;-144.47;41.20;52518.47;4991880;28;20105;-71
2023/06/05 01:36:18;;;;;;;6.22;1.70;;;;;;;-144.47;41.38;52534.34;4999804;28;20089;-69
2023/06/05 01:38:45;;;;;;;7.55;2.20;;;;;;;-144.47;41.69;52534.34;4975581;28;20037;-70
2023/06/05 01:41:12;;;;;;;3.50;1.52;;;;;;;-144.47;41.80;52536.34;4999515;28;20396;-69
2023/06/05 01:43:39;;;;;;;7.95;1.95;;;;;;;-144.47;41.98;52550.25;5002116;28;20496;-69
2023/06/05 01:46:11;;;;;;;4.60;1.80;;;;;;;-144.47;42.16;52538.31;4994364;28;20080;-69
2023/06/05 01:48:38;;;;;;;5.43;2.10;;;;;;;-144.47;42.17;52548.25;5009635;28;20057;-70
2023/06/05 01:51:04;;;;;;;7.43;2.08;;;;;;;-144.47;42.33;52554.22;5009558;28;20022;-69
2023/06/05 01:53:30;;;;;;;6.47;2.08;;;;;;;-144.47;42.53;52548.25;5007642;28;20037;-67
2023/06/05 01:55:59;;;;;;;4.90;1.95;;;;;;;-144.47;42.67;52530.38;4997875;28;20038;-69
2023/06/05 01:58:25;;;;;;;5.63;2.10;;;;;;;-144.47;42.89;52534.34;4994241;28;20033;-70
2023/06/05 02:00:52;;;;;;;7.68;1.83;;;;;;;-144.47;43.02;52552.22;4998211;28;20034;-67
2023/06/05 02:03:18;;;;;;;3.50;1.60;;;;;;;-144.47;43.24;52540.31;4994261;28;20022;-69
2023/06/05 02:05:44;;;;;;;4.22;1.70;;;;;;;-144.47;43.18;52558.19;4997532;28;20113;-70
2023/06/05 02:08:10;;;;;;;4.80;1.67;;;;;;;-144.47;43.47;52530.38;4994863;28;20120;-69
2023/06/05 02:10:44;;;;;;;4.43;1.85;;;;;;;-144.47;43.62;52558.19;5007669;28;20022;-68
2023/06/05 02:13:10;;;;;;;6.43;2.25;;;;;;;-144.47;43.70;52552.22;5009302;28;20026;-68
2023/06/05 02:15:36;;;;;;;7.05;1.88;;;;;;;-144.47;43.75;52558.19;5008733;28;20021;-68
2023/06/05 02:18:02;;;;;;;4.47;2.00;;;;;;;-144.47;44.01;52536.34;4993853;28;20062;-66
2023/06/05 02:20:32;;;;;;;5.30;1.95;;;;;;;-144.47;44.02;52548.25;4988060;28;20033;-67
2023/06/05 02:23:00;;;;;;;5.10;1.75;;;;;;;-144.47;44.14;52566.13;4989503;28;20022;-69
2023/06/05 02:25:29;;;;;;;7.68;2.20;;;;;;;-144.47;44.22;52546.25;4987823;28;20026;-68
2023/06/05 02:27:55;;;;;;;3.95;2.00;;;;;;;-144.47;44.52;52536.34;4984369;28;20189;-70
2023/06/05 02:30:21;;;;;;;3.90;1.80;;;;;;;-144.47;44.38;52542.28;4989295;28;20022;-68
2023/06/05 02:32:48;;;;;;;5.63;2.05;;;;;;;-144.47;44.61;52558.19;4992236;28;20061;-70
2023/06/05 02:35:14;;;;;;;7.55;2.05;;;;;;;-144.47;44.83;52550.25;5000559;28;20132;-69
2023/06/05 02:37:44;;;;;;;5.90;1.77;;;;;;;-144.47;44.97;52548.25;5009613;28;20084;-70
2023/06/05 02:40:11;;;;;;;27.02;3.80;;;;;;;-144.47;44.95;52550.25;4995150;28;20037;-67
2023/06/05 02:42:37;;;;;;;13.77;2.42;;;;;;;-144.47;45.06;52518.47;5002109;28;20156;-68
2023/06/05 02:45:03;;;;;;;6.63;2.00;;;;;;;-144.47;45.03;52554.22;4988138;28;20101;-69
2023/06/05 02:47:29;;;;;;;18.30;3.40;;;;;;;-144.47;45.11;52526.41;4993886;28;20488;-66
2023/06/05 02:49:56;;;;;;;7.35;1.98;;;;;;;-144.47;45.12;52548.25;5004134;28;20029;-70
2023/06/05 02:52:21;;;;;;;7.07;2.38;;;;;;;-144.47;45.24;52580.03;5001246;28;20499;-70
2023/06/05 02:54:47;;;;;;;3.95;2.03;;;;;;;-144.47;45.23;52560.16;5002853;28;20116;-69
2023/06/05 02:57:14;;;;;;;4.88;1.67;;;;;;;-144.47;45.20;52530.38;5008634;28;20116;-69
2023/06/05 02:59:39;;;;;;;5.85;1.65;;;;;;;-144.47;45.23;52532.38;5008286;28;20519;-66
2023/06/05 03:02:07;;;;;;;5.35;1.80;;;;;;;-144.47;45.40;52548.25;4999210;28;20033;-68
2023/06/05 03:04:33;;;;;;;5.00;1.92;;;;;;;-144.47;45.38;52548.25;5007738;28;20022;-66
2023/06/05 03:07:03;;;;;;;7.88;2.10;;;;;;;-144.47;45.89;52550.25;5007692;28;20030;-68
2023/06/05 03:09:32;;;;;;;5.63;2.03;;;;;;;-144.47;46.62;52566.13;5009136;28;20049;-69
2023/06/05 03:11:58;;;;;;;3.30;1.58;;;;;;;-144.47;46.91;52556.19;5011172;28;20037;-69
2023/06/05 03:14:27;;;;;;;12.65;2.50;;;;;;;-144.47;47.09;52558.19;5007841;28;20034;-69
2023/06/05 03:16:53;;;;;;;8.02;2.28;;;;;;;-144.47;47.59;52554.22;5000840;28;20107;-69
2023/06/05 03:19:19;;;;;;;4.85;1.70;;;;;;;-144.47;47.96;52540.31;5005312;28;20077;-70
2023/06/05 03:21:45;;;;;;;9.55;2.17;;;;;;;-144.47;48.10;52554.22;4997218;28;20026;-69
2023/06/05 03:24:14;;;;;;;7.90;1.98;;;;;;;-144.47;48.66;52554.22;4994955;28;20022;-66
2023/06/05 03:26:40;;;;;;;7.05;2.38;;;;;;;-144.47;48.63;52552.22;5003600;28;20446;-68
2023/06/05 03:29:07;;;;;;;5.97;2.45;;;;;;;-144.47;48.73;52554.22;4999226;28;20033;-70
2023/06/05 03:31:32;;;;;;;4.68;1.77;;;;;;;-144.47;49.08;52556.19;5012364;28;20492;-67
2023/06/05 03:33:59;;;;;;;14.05;2.33;;;;;;;-144.47;49.38;52572.09;5010796;28;20040;-66
2023/06/05 03:36:29;;;;;;;13.30;2.90;;;;;;;-144.47;49.73;52564.13;5001401;28;20366;-68
2023/06/05 03:38:55;;;;;;;8.10;2.17;;;;;;;-144.47;49.53;52546.25;4997190;28;20041;-70
2023/06/05 03:41:21;;;;;;;11.43;2.75;;;;;;;-144.47;49.47;52570.09;5011482;28;20029;-69
2023/06/05 03:43:46;;;;;;;6.85;2.42;;;;;;;-144.47;49.58;52560.16;4995732;28;20026;-71
2023/06/05 03:46:18;;;;;;;7.32;2.40;;;;;;;-144.47;49.78;52542.28;4999205;28;20034;-67
2023/06/05 03:48:43;;;;;;;13.80;2.55;;;;;;;-144.47;49.87;52566.13;5012108;28;20549;-68
2023/06/05 03:51:09;;;;;;;5.63;2.15;;;;;;;-144.47;49.87;52526.41;5000031;28;20070;-71
2023/06/05 03:53:34;;;;;;;7.25;2.40;;;;;;;-144.47;50.01;52532.38;4993654;28;20046;-71
2023/06/05 03:56:00;;;;;;;12.98;2.63;;;;;;;-144.47;50.16;52572.09;5004509;28;20028;-70
2023/06/05 03:58:26;;;;;;;8.93;2.58;;;;;;;-144.47;50.46;52558.19;4999288;28;20100;-69
2023/06/05 04:00:53;;;;;;;8.73;2.45;;;;;;;-144.47;50.58;52548.25;5011969;28;20030;-68
2023/06/05 04:03:20;;;;;;;7.68;1.98;;;;;;;-144.47;50.57;52548.25;5006839;28;20026;-70
2023/06/05 04:05:46;;;;;;;7.60;2.40;;;;;;;-144.47;50.67;52546.25;5004407;28;20033;-68
2023/06/05 04:08:11;;;;;;;6.97;2.60;;;;;;;-144.47;50.16;52546.25;5010380;28;20038;-71
2023/06/05 04:10:38;;;;;;;5.78;2.60;;;;;;;-144.47;50.24;52546.25;4995192;28;20480;-70
2023/06/05 04:13:03;;;;;;;12.85;3.30;;;;;;;-144.47;50.92;52556.19;4995035;28;20373;-68
2023/06/05 04:15:29;;;;;;;9.05;2.55;;;;;;;-144.47;50.77;52546.25;5001477;28;20080;-69
2023/06/05 04:17:55;;;;;;;6.45;2.17;;;;;;;-144.47;50.56;52558.19;4999083;28;20464;-70
2023/06/05 04:20:21;;;;;;;18.08;2.83;;;;;;;-144.47;50.46;52530.38;4993912;28;20045;-70
2023/06/05 04:22:47;;;;;;;10.43;2.60;;;;;;;-144.47;50.97;52546.25;4988331;28;20026;-71
2023/06/05 04:25:14;;;;;;;6.28;2.53;;;;;;;-144.47;50.85;52562.16;4990083;28;20022;-70
2023/06/05 04:27:40;;;;;;;3.75;1.80;;;;;;;-144.47;51.07;52536.34;5015068;22;20137;-68
2023/06/05 04:30:07;;;;;;;11.93;2.53;;;;;;;-144.47;50.72;52582.00;5002705;28;20110;-69
2023/06/05 04:32:36;;;;;;;14.88;3.80;;;;;;;-144.47;50.77;52554.22;5010968;28;20037;-68
2023/06/05 04:35:03;;;;;;;7.85;2.85;;;;;;;-144.47;49.68;52558.19;5008401;28;20021;-69
2023/06/05 04:37:28;;;;;;;7.78;2.20;;;;;;;-144.47;49.48;52538.31;4992299;28;20441;-70
2023/06/05 04:39:54;;;;;;;8.52;2.90;;;;;;;-144.47;49.06;52544.28;5002774;28;20034;-68
2023/06/05 04:42:21;;;;;;;12.10;2.80;;;;;;;-144.47;48.26;52548.25;5003372;28;20033;-69
2023/06/05 04:44:56;;;;;;;5.65;2.20;;;;;;;-144.47;48.01;52540.31;4983001;28;20103;-70
2023/06/05 04:47:21;;;;;;;6.07;2.33;;;;;;;-144.47;48.07;52526.41;4994023;28;20022;-70
2023/06/05 04:49:49;;;;;;;5.63;2.65;;;;;;;-144.47;47.77;52518.47;4993268;28;20023;-69
2023/06/05 04:52:14;;;;;;;9.40;2.83;;;;;;;-144.47;48.22;52534.34;5005798;28;20365;-69
2023/06/05 04:54:39;;;;;;;7.80;2.42;;;;;;;-144.47;48.31;52530.38;4982027;28;20508;-67
2023/06/05 04:57:06;;;;;;;6.25;2.15;;;;;;;-144.47;47.89;52546.25;4988082;28;20060;-68
2023/06/05 04:59:32;;;;;;;7.05;2.63;;;;;;;-144.47;47.98;52538.31;5001016;28;20120;-69
2023/06/05 05:01:58;;;;;;;19.13;2.90;;;;;;;-144.47;47.94;52538.31;5010584;28;20133;-69
2023/06/05 05:04:23;;;;;;;12.48;2.50;;;;;;;-144.47;47.64;52548.25;5001800;28;20029;-70
2023/06/05 05:06:51;;;;;;;7.63;2.72;;;;;;;-144.47;47.43;52542.28;4990012;28;20030;-69
2023/06/05 05:09:16;;;;;;;8.95;2.83;;;;;;;-144.47;47.09;52538.31;4989076;28;20511;-71
2023/06/05 05:11:45;;;;;;;7.40;2.83;;;;;;;-144.47;47.14;52548.25;4996426;28;20026;-69
2023/06/05 05:14:10;;;;;;;13.43;2.78;;;;;;;-144.47;47.19;52532.38;4991286;28;20022;-69
2023/06/05 05:16:35;;;;;;;10.38;2.20;;;;;;;-144.47;47.30;52542.28;4998183;28;20522;-67
2023/06/05 05:19:01;;;;;;;5.20;2.38;;;;;;;-144.47;47.26;52546.25;4988787;28;20026;-70
2023/06/05 05:21:26;;;;;;;9.20;2.60;;;;;;;-144.47;48.99;52534.34;4995958;28;20019;-68
2023/06/05 05:23:51;;;;;;;9.07;2.20;;;;;;;-144.47;48.23;52546.25;4991176;28;20024;-70
2023/06/05 05:26:17;;;;;;;4.15;2.17;;;;;;;-144.47;44.84;52534.34;5000407;28;20108;-69
2023/06/05 05:28:42;;;;;;;8.85;3.50;;;;;;;-144.47;45.65;52530.38;4994503;28;20026;-65
2023/06/05 05:31:07;;;;;;;10.23;2.97;;;;;;;-144.47;45.20;52514.50;5008298;28;20453;-69
2023/06/05 05:33:33;;;;;;;8.07;2.50;;;;;;;-144.47;44.78;52522.44;4987527;28;20459;-69
2023/06/05 05:35:58;;;;;;;8.60;2.50;;;;;;;-144.47;44.57;52526.41;5000117;28;20373;-68
2023/06/05 05:38:24;;;;;;;16.25;2.63;;;;;;;-144.47;45.23;52508.53;4990535;28;20022;-66
2023/06/05 05:40:49;;;;;;;23.13;3.20;;;;;;;-144.47;45.70;52540.31;4985641;28;20069;-67
2023/06/05 05:43:16;;;;;;;8.73;3.00;;;;;;;-144.47;45.72;52534.34;4981649;28;20369;-69
2023/06/05 05:45:43;;;;;;;11.30;2.50;;;;;;;-144.47;45.53;52536.34;4992352;28;20025;-64
2023/06/05 05:48:09;;;;;;;6.68;2.50;;;;;;;-144.47;45.33;52524.41;4988432;28;20406;-67
2023/06/05 05:50:34;;;;;;;6.55;2.72;;;;;;;-144.47;45.03;52526.41;4999740;28;20499;-69
2023/06/05 05:52:59;;;;;;;12.05;3.50;;;;;;;-144.47;45.28;52512.50;5009753;28;20464;-66
2023/06/05 05:55:25;;;;;;;7.63;2.60;;;;;;;-144.47;43.40;52534.34;5007796;28;20032;-69
2023/06/05 05:57:50;;;;;;;6.68;2.17;;;;;;;-144.47;43.20;52528.41;5009574;28;20496;-67
2023/06/05 06:00:16;;;;;;;16.75;3.40;;;;;;;-144.47;42.57;52514.50;5002966;28;20038;-67
2023/06/05 06:02:42;;;;;;;9.60;2.55;;;;;;;-144.47;42.52;52522.44;4988613;28;20097;-68
2023/06/05 06:05:08;;;;;;;10.82;3.35;;;;;;;-144.47;42.11;52502.56;5007026;28;20026;-68
2023/06/05 06:07:35;;;;;;;15.48;2.78;;;;;;;-144.47;41.48;52532.38;5001511;28;20033;-66
2023/06/05 06:10:01;;;;;;;9.73;3.08;;;;;;;-144.47;41.44;52514.50;5009004;28;20538;-68
2023/06/05 06:12:27;;;;;;;16.50;2.60;;;;;;;-144.47;41.01;52516.47;5009568;28;20026;-69
2023/06/05 06:14:56;;;;;;;7.57;2.70;;;;;;;-144.47;40.71;52544.28;5009021;28;20088;-67
2023/06/05 06:17:21;;;;;;;7.53;2.63;;;;;;;-144.47;40.62;52522.44;5000146;28;20031;-64
2023/06/05 06:19:48;;;;;;;12.18;2.60;;;;;;;-144.47;40.53;52498.59;4995898;28;20088;-72
2023/06/05 06:22:14;;;;;;;14.13;2.92;;;;;;;-144.47;40.63;52516.47;4985912;28;20483;-65
2023/06/05 06:24:41;;;;;;;7.18;2.40;;;;;;;-144.47;40.46;52526.41;4983971;28;20057;-66
2023/06/05 06:27:08;;;;;;;8.18;2.20;;;;;;;-144.47;40.46;52518.47;4986309;28;20080;-68
2023/06/05 06:29:34;;;;;;;9.30;2.63;;;;;;;-144.47;40.66;52546.25;4984204;28;20033;-70
2023/06/05 06:32:00;;;;;;;7.30;2.20;;;;;;;-144.47;40.44;52506.53;4986665;28;20034;-69
2023/06/05 06:34:26;;;;;;;7.60;2.65;;;;;;;-144.47;40.77;52532.38;4985517;28;20387;-69
2023/06/05 06:36:51;;;;;;;10.82;2.25;;;;;;;-144.47;40.82;52528.41;4988901;28;20026;-65
2023/06/05 06:39:18;;;;;;;9.80;2.40;;;;;;;-144.47;41.03;52504.56;4989588;28;20068;-70
2023/06/05 06:41:44;;;;;;;4.60;1.75;;;;;;;-144.47;40.85;52510.53;5001037;28;20021;-67
2023/06/05 06:44:10;;;;;;;5.93;1.90;;;;;;;-144.47;40.66;52500.59;4988749;28;20026;-69
2023/06/05 06:46:36;;;;;;;5.00;2.22;;;;;;;-144.47;40.40;52520.44;4993682;28;20469;-69
2023/06/05 06:49:01;;;;;;;8.48;2.03;;;;;;;-144.47;40.32;52524.41;5011583;28;20021;-65
2023/06/05 06:51:27;;;;;;;11.38;2.17;;;;;;;-144.47;40.54;52534.34;4999005;28;20026;-69
2023/06/05 06:53:52;;;;;;;10.68;2.67;;;;;;;-144.47;40.77;52532.38;4991116;28;20165;-69
2023/06/05 06:56:18;;;;;;;23.25;2.75;;;;;;;-144.47;40.83;52528.41;5006677;28;20340;-68
2023/06/05 06:58:45;;;;;;;21.67;2.38;;;;;;;-144.47;41.08;52524.41;5009556;28;20025;-67
2023/06/05 07:01:11;;;;;;;6.82;2.63;;;;;;;-144.47;41.25;52506.53;4999784;28;20570;-69
2023/06/05 07:03:38;;;;;;;6.13;2.20;;;;;;;-144.47;40.98;52514.50;5001885;28;20048;-69
2023/06/05 07:06:03;;;;;;;9.02;2.30;;;;;;;-144.47;41.00;52500.59;4985568;28;20033;-66
2023/06/05 07:08:29;;;;;;;6.65;2.10;;;;;;;-144.47;40.50;52512.50;4986318;28;20042;-69
2023/06/05 07:10:55;;;;;;;13.63;2.53;;;;;;;-144.47;40.63;52506.53;4983881;28;20483;-65
2023/06/05 07:13:21;;;;;;;6.43;2.15;;;;;;;-144.47;39.98;52546.25;4984248;28;20063;-66
2023/06/05 07:15:48;;;;;;;14.20;2.78;;;;;;;-144.47;39.91;52504.56;4983036;28;20040;-68
2023/06/05 07:18:13;;;;;;;13.00;2.70;;;;;;;-144.47;39.67;52522.44;4984921;28;20030;-67
2023/06/05 07:20:39;;;;;;;3.63;2.03;;;;;;;-144.47;39.41;52520.44;4983524;28;20074;-69
2023/06/05 07:23:05;;;;;;;6.90;2.30;;;;;;;-144.47;39.31;52508.53;4984324;28;20034;-67
2023/06/05 07:25:33;;;;;;;6.03;2.00;;;;;;;-144.47;39.36;52498.59;4987403;28;20042;-68
2023/06/05 07:27:59;;;;;;;;;;;;;;;-144.47;39.34;52506.53;4986931;28;20436;-76
2023/06/05 07:30:28;;;;;;;7.07;2.33;;;;;;;-144.47;38.47;52490.66;4984364;28;19924;-71
2023/06/05 07:32:55;;;;;;;3.88;1.83;;;;;;;-144.47;38.66;52538.31;4985785;28;20068;-66
2023/06/05 07:35:20;;;;;;;7.32;2.25;;;;;;;-144.47;38.31;52500.59;4984142;28;20061;-69
2023/06/05 07:37:46;;;;;;;6.75;2.50;;;;;;;-144.47;37.92;52498.59;4987778;28;20126;-67
2023/06/05 07:40:11;;;;;;;11.63;2.67;;;;;;;-144.47;37.81;52506.53;4982820;28;20200;-68
2023/06/05 07:42:37;;;;;;;7.82;2.45;;;;;;;-144.47;37.77;52532.38;4995062;28;20033;-68
2023/06/05 07:45:02;;;;;;;10.77;2.45;;;;;;;-144.47;37.50;52520.44;5007942;28;20097;-69
2023/06/05 07:47:28;;;;;;;6.47;2.47;;;;;;;-144.47;37.75;52482.72;4993843;28;20595;-70
2023/06/05 07:50:01;;;;;;;9.77;2.10;;;;;;;-144.47;38.15;52522.44;4992760;28;20519;-67
2023/06/05 07:52:27;;;;;;;12.00;2.40;;;;;;;-144.47;37.80;52518.47;4994731;28;20050;-68
2023/06/05 07:54:53;;;;;;;6.93;2.33;;;;;;;-144.47;37.45;52516.47;4987711;28;20034;-70
2023/06/05 07:57:19;;;;;;;14.95;2.30;;;;;;;-144.47;37.35;52518.47;4991333;28;20026;-69
2023/06/05 07:59:44;;;;;;;4.72;2.00;;;;;;;-144.47;37.54;52520.44;4995749;28;20053;-66
2023/06/05 08:02:10;;;;;;;9.82;2.38;;;;;;;-144.47;37.53;52506.53;4998634;28;20488;-69
2023/06/05 08:04:35;;;;;;;5.60;2.20;;;;;;;-144.47;37.37;52506.53;5010695;28;20022;-69
2023/06/05 08:07:01;;;;;;;13.10;2.90;;;;;;;-144.47;37.23;52502.56;5011470;28;20644;-68
2023/06/05 08:09:27;;;;;;;9.95;2.30;;;;;;;-144.47;37.39;52498.59;5010164;28;20032;-67
2023/06/05 08:11:52;;;;;;;10.20;1.90;;;;;;;-144.47;37.36;52508.53;5003869;28;20026;-68
2023/06/05 08:14:18;;;;;;;12.85;2.33;;;;;;;-144.47;36.83;52510.53;4990742;28;20034;-68
2023/06/05 08:16:43;;;;;;;7.28;2.33;;;;;;;-144.47;36.76;52522.44;5010034;28;20037;-69
2023/06/05 08:19:09;;;;;;;14.40;2.35;;;;;;;-144.47;36.96;52518.47;4995843;28;20032;-69
2023/06/05 08:21:34;;;;;;;4.95;1.88;;;;;;;-144.47;36.85;52510.53;4992089;28;20109;-68
2023/06/05 08:23:59;;;;;;;8.15;1.98;;;;;;;-144.47;36.26;52510.53;4991107;28;20026;-71
2023/06/05 08:26:25;;;;;;;5.97;2.97;;;;;;;-144.47;36.03;52500.59;5008345;28;20391;-67
2023/06/05 08:28:51;;;;;;;6.03;2.35;;;;;;;-144.47;36.18;52512.50;5003764;28;20034;-65
2023/06/05 08:31:16;;;;;;;6.65;2.03;;;;;;;-144.47;36.30;52500.59;4996525;28;20095;-71
2023/06/05 08:33:43;;;;;;;7.28;2.08;;;;;;;-144.47;36.03;52504.56;4999274;28;20046;-69
2023/06/05 08:36:08;;;;;;;6.85;1.90;;;;;;;-144.47;35.83;52512.50;5003708;28;20042;-69
2023/06/05 08:38:34;;;;;;;10.93;2.30;;;;;;;-144.47;35.48;52524.41;4991958;28;20061;-70
2023/06/05 08:41:02;;;;;;;15.65;2.22;;;;;;;-144.47;34.84;52518.47;5008809;28;20105;-68
2023/06/05 08:43:27;;;;;;;6.65;2.38;;;;;;;-144.47;34.32;52526.41;4998355;28;20450;-70
2023/06/05 08:45:56;;;;;;;14.98;2.38;;;;;;;-144.47;34.05;52518.47;4994961;28;20049;-65
2023/06/05 08:48:21;;;;;;;9.38;2.00;;;;;;;-144.47;33.49;52536.34;4990977;28;20018;-68
2023/06/05 08:50:54;;;;;;;4.88;1.80;;;;;;;-144.47;32.92;52532.38;4989232;28;20041;-68
2023/06/05 08:53:20;;;;;;;7.60;1.85;;;;;;;-144.47;32.29;52528.41;5003609;28;20026;-68
2023/06/05 08:55:50;;;;;;;12.80;1.60;;;;;;;-144.47;32.30;52544.28;4990190;28;20026;-67
2023/06/05 08:58:16;;;;;;;11.90;1.63;;;;;;;-144.47;31.82;52530.38;5006678;28;20022;-69
2023/06/05 09:00:48;;;;;;;5.88;1.80;;;;;;;-144.47;32.05;52542.28;5009730;28;20036;-68
2023/06/05 09:03:19;;;;;;;9.13;2.10;;;;;;;-144.47;32.40;52544.28;4997401;28;20029;-68
2023/06/05 09:05:48;;;;;;;9.93;2.05;;;;;;;-144.47;32.29;52528.41;5009774;28;20046;-67
2023/06/05 09:08:15;;;;;;;5.82;2.03;;;;;;;-144.47;31.85;52520.44;5004769;28;20045;-68
2023/06/05 09:10:41;;;;;;;8.07;1.60;;;;;;;-144.47;32.19;52552.22;5001899;28;20030;-68
2023/06/05 09:13:06;;;;;;;6.72;1.83;;;;;;;-144.47;31.36;52538.31;5004774;28;20424;-66
2023/06/05 09:15:34;;;;;;;5.72;2.15;;;;;;;-144.47;31.31;52494.63;5008590;28;20034;-67
2023/06/05 09:18:08;;;;;;;7.10;1.60;;;;;;;-144.47;31.62;52528.41;4992064;28;20030;-68
2023/06/05 09:20:35;;;;;;;5.47;1.52;;;;;;;-144.47;31.91;52552.22;5009997;28;20391;-67
2023/06/05 09:23:02;;;;;;;5.72;2.10;;;;;;;-144.47;31.71;52514.50;4990628;28;20054;-67
2023/06/05 09:25:45;;;;;;;10.63;1.80;;;;;;;-144.47;31.61;52532.38;4987807;28;20101;-66
2023/06/05 09:28:10;;;;;;;4.43;1.50;;;;;;;-144.47;31.68;52524.41;5008986;28;20040;-69
2023/06/05 09:30:52;;;;;;;11.50;2.05;;;;;;;-144.47;31.37;52520.44;5005712;28;20029;-68
2023/06/05 09:33:19;;;;;;;3.58;1.42;;;;;;;-144.47;31.50;52538.31;4990115;28;20083;-69
2023/06/05 09:35:44;;;;;;;6.93;1.88;;;;;;;-144.47;31.51;52542.28;5007297;28;20029;-68
2023/06/05 09:38:29;;;;;;;6.00;1.75;;;;;;;-144.47;31.16;52524.41;5009706;28;20110;-65
2023/06/05 09:41:09;;;;;;;5.78;1.60;;;;;;;-144.47;31.08;52518.47;5001880;28;20037;-65
2023/06/05 09:43:36;;;;;;;11.10;2.15;;;;;;;-144.47;31.33;52518.47;5001943;28;20022;-66
2023/06/05 09:46:11;;;;;;;8.40;2.07;;;;;;;-144.47;30.99;52518.47;4990173;28;20018;-69
2023/06/05 09:48:37;;;;;;;4.28;1.80;;;;;;;-144.47;31.32;52532.38;4989994;28;20046;-69
2023/06/05 09:51:31;;;;;;;6.70;2.17;;;;;;;-144.47;30.99;52526.41;5000567;28;20037;-69
2023/06/05 09:53:57;;;;;;;8.65;1.73;;;;;;;-144.47;30.80;52528.41;5005935;28;20046;-68
2023/06/05 09:56:23;;;;;;;6.10;1.80;;;;;;;-144.47;31.10;52518.47;5008935;28;20037;-69
2023/06/05 09:58:51;;;;;;;7.43;1.90;;;;;;;-144.47;31.16;52534.34;5009357;28;20589;-69
2023/06/05 10:01:24;;;;;;;7.78;1.90;;;;;;;-144.47;30.56;52558.19;5007225;28;20121;-69
2023/06/05 10:04:00;;;;;;;21.52;4.32;;;;;;;-144.47;30.46;52508.53;4998806;28;20033;-69
2023/06/05 10:06:29;;;;;;;6.53;1.90;;;;;;;-144.47;30.31;52526.41;4994986;28;20026;-68
2023/06/05 10:08:56;;;;;;;4.13;1.60;;;;;;;-144.47;29.74;52546.25;5003961;28;20030;-66
2023/06/05 10:11:23;;;;;;;6.82;1.83;;;;;;;-144.47;29.72;52550.25;5008839;28;20030;-69
2023/06/05 10:13:49;;;;;;;5.10;1.77;;;;;;;-144.47;29.44;52552.22;4996855;28;20019;-68
2023/06/05 10:16:17;;;;;;;6.85;1.60;;;;;;;-144.47;29.62;52538.31;5002985;28;20023;-66
2023/06/05 10:18:46;;;;;;;3.87;1.80;;;;;;;-144.47;29.61;52552.22;4985926;28;20026;-64
2023/06/05 10:21:12;;;;;;;9.20;2.05;;;;;;;-144.47;29.69;52542.28;4986518;28;20275;-69
2023/06/05 10:23:37;;;;;;;7.60;1.80;;;;;;;-144.47;29.31;52558.19;4991757;28;20030;-69
2023/06/05 10:26:11;;;;;;;9.85;1.90;;;;;;;-144.47;29.07;52564.13;4997955;28;20143;-65
2023/06/05 10:29:03;;;;;;;7.28;1.48;;;;;;;-144.47;28.75;52540.31;5019668;22;20049;-72
2023/06/05 10:31:35;;;;;;;4.20;1.77;;;;;;;-144.47;28.48;52564.13;4988819;28;20627;-70
2023/06/05 10:34:17;;;;;;;14.80;1.92;;;;;;;-144.47;28.63;52576.06;5004598;28;20027;-71
2023/06/05 10:37:11;;;;;;;6.18;2.33;;;;;;;-144.47;28.10;52570.09;4992400;28;20106;-71
2023/06/05 10:39:36;;;;;;;6.18;1.92;;;;;;;-144.47;27.99;52582.00;4982837;28;20061;-69
2023/06/05 10:42:02;;;;;;;9.93;1.80;;;;;;;-144.47;27.75;52554.22;4989932;28;20507;-73
2023/06/05 10:44:43;;;;;;;12.05;2.10;;;;;;;-144.47;27.47;52582.00;4990760;28;20027;-71
2023/06/05 10:47:51;;;;;;;7.55;1.85;;;;;;;-144.47;27.83;52568.13;4990644;28;20022;-70
2023/06/05 10:50:19;;;;;;;4.85;1.67;;;;;;;-144.47;27.34;52589.97;4980508;28;20073;-70
2023/06/05 10:52:47;;;;;;;9.23;1.77;;;;;;;-144.47;27.52;52599.88;4992630;28;20129;-72
2023/06/05 10:55:15;;;;;;;8.38;1.73;;;;;;;-144.47;27.53;52570.09;4993887;28;20036;-71
2023/06/05 10:57:56;;;;;;;10.03;2.30;;;;;;;-144.47;27.44;52572.09;4991550;28;20042;-73
2023/06/05 11:00:22;;;;;;;9.48;1.85;;;;;;;-144.47;27.75;52572.09;4991027;28;20382;-71
2023/06/05 11:02:48;;;;;;;4.60;1.80;;;;;;;-144.47;27.95;52568.13;4992087;28;20041;-71
2023/06/05 11:05:13;;;;;;;14.02;2.58;;;;;;;-144.47;28.40;52554.22;4989422;28;20116;-71
2023/06/05 11:07:40;;;;;;;6.07;2.05;;;;;;;-144.47;27.90;52576.06;4992110;28;20149;-71
2023/06/05 11:10:06;;;;;;;10.32;1.92;;;;;;;-144.47;28.16;52578.03;4991192;28;20356;-69
2023/06/05 11:12:35;;;;;;;6.75;2.35;;;;;;;-144.47;28.00;52585.97;4991326;28;20156;-73
2023/06/05 11:15:02;;;;;;;8.77;2.42;;;;;;;-144.47;27.85;52607.84;4990754;28;20180;-72
2023/06/05 11:17:29;;;;;;;7.10;1.60;;;;;;;-144.47;27.67;52582.00;4986801;28;20031;-72